sensor_id;sensor_type;location;lat;lon;timestamp;pressure;altitude;pressure_sealevel;temperature;humidity
54417;BME280;40326;51.220;7.250;2022-11-06T00:00:19;98435.41;;;6.49;100.00
54417;BME280;40326;51.220;7.250;2022-11-06T00:02:45;98435.38;;;6.51;100.00
54417;BME280;40326;51.220;7.250;2022-11-06T00:05:10;98429.34;;;6.53;100.00
54417;BME280;40326;51.220;7.250;2022-11-06T00:07:55;98433.53;;;6.54;100.00
54417;BME280;40326;51.220;7.250;2022-11-06T00:10:20;98432.75;;;6.52;100.00
54417;BME280;40326;51.220;7.250;2022-11-06T00:12:46;98435.38;;;6.51;100.00
54417;BME280;40326;51.220;7.250;2022-11-06T00:15:12;98417.56;;;6.51;100.00
54417;BME280;40326;51.220;7.250;2022-11-06T00:17:38;98427.84;;;6.48;100.00
54417;BME280;40326;51.220;7.250;2022-11-06T00:20:05;98420.75;;;6.58;100.00
54417;BME280;40326;51.220;7.250;2022-11-06T00:22:34;98420.25;;;6.46;100.00
54417;BME280;40326;51.220;7.250;2022-11-06T00:25:00;98428.44;;;6.54;100.00
54417;BME280;40326;51.220;7.250;2022-11-06T00:27:26;98417.31;;;6.59;100.00
54417;BME280;40326;51.220;7.250;2022-11-06T00:29:51;98415.84;;;6.51;100.00
54417;BME280;40326;51.220;7.250;2022-11-06T00:32:17;98416.38;;;6.61;100.00
54417;BME280;40326;51.220;7.250;2022-11-06T00:34:42;98419.38;;;6.72;100.00
54417;BME280;40326;51.220;7.250;2022-11-06T00:37:07;98414.09;;;6.78;100.00
54417;BME280;40326;51.220;7.250;2022-11-06T00:39:33;98410.13;;;6.70;100.00
54417;BME280;40326;51.220;7.250;2022-11-06T00:41:58;98407.34;;;6.77;100.00
54417;BME280;40326;51.220;7.250;2022-11-06T00:44:23;98413.69;;;6.66;100.00
54417;BME280;40326;51.220;7.250;2022-11-06T00:46:49;98417.72;;;6.71;100.00
54417;BME280;40326;51.220;7.250;2022-11-06T00:49:14;98418.53;;;6.72;100.00
54417;BME280;40326;51.220;7.250;2022-11-06T00:51:39;98414.41;;;6.69;100.00
54417;BME280;40326;51.220;7.250;2022-11-06T00:54:06;98413.88;;;6.60;100.00
54417;BME280;40326;51.220;7.250;2022-11-06T00:56:33;98418.09;;;6.61;100.00
54417;BME280;40326;51.220;7.250;2022-11-06T00:59:00;98420.44;;;6.67;100.00
54417;BME280;40326;51.220;7.250;2022-11-06T01:01:28;98430.59;;;6.67;100.00
54417;BME280;40326;51.220;7.250;2022-11-06T01:03:59;98431.63;;;6.61;100.00
54417;BME280;40326;51.220;7.250;2022-11-06T01:06:27;98431.22;;;6.48;100.00
54417;BME280;40326;51.220;7.250;2022-11-06T01:08:53;98437.22;;;6.46;100.00
54417;BME280;40326;51.220;7.250;2022-11-06T01:11:31;98439.72;;;6.47;100.00
54417;BME280;40326;51.220;7.250;2022-11-06T01:13:59;98425.63;;;6.37;100.00
54417;BME280;40326;51.220;7.250;2022-11-06T01:16:25;98422.94;;;6.42;100.00
54417;BME280;40326;51.220;7.250;2022-11-06T01:18:52;98414.69;;;6.35;100.00
54417;BME280;40326;51.220;7.250;2022-11-06T01:21:22;98406.91;;;6.40;100.00
54417;BME280;40326;51.220;7.250;2022-11-06T01:23:57;98414.50;;;6.41;100.00
54417;BME280;40326;51.220;7.250;2022-11-06T01:26:23;98416.16;;;6.42;100.00
54417;BME280;40326;51.220;7.250;2022-11-06T01:28:49;98407.16;;;6.32;100.00
54417;BME280;40326;51.220;7.250;2022-11-06T06:02:46;98186.91;;;6.30;100.00
54417;BME280;40326;51.220;7.250;2022-11-06T06:05:11;98187.63;;;6.33;100.00
54417;BME280;40326;51.220;7.250;2022-11-06T06:07:37;98183.53;;;6.29;100.00
54417;BME280;40326;51.220;7.250;2022-11-06T06:10:02;98179.09;;;6.34;100.00
54417;BME280;40326;51.220;7.250;2022-11-06T06:12:28;98170.91;;;6.26;100.00
54417;BME280;40326;51.220;7.250;2022-11-06T06:14:54;98174.84;;;6.35;100.00
54417;BME280;40326;51.220;7.250;2022-11-06T06:17:20;98163.22;;;6.28;100.00
54417;BME280;40326;51.220;7.250;2022-11-06T06:19:46;98172.50;;;6.30;100.00
54417;BME280;40326;51.220;7.250;2022-11-06T06:22:11;98170.66;;;6.34;100.00
54417;BME280;40326;51.220;7.250;2022-11-06T06:24:36;98171.13;;;6.43;100.00
54417;BME280;40326;51.220;7.250;2022-11-06T06:27:02;98159.44;;;6.39;100.00
54417;BME280;40326;51.220;7.250;2022-11-06T06:29:28;98164.41;;;6.42;100.00
54417;BME280;40326;51.220;7.250;2022-11-06T06:31:53;98163.50;;;6.43;100.00
54417;BME280;40326;51.220;7.250;2022-11-06T06:34:18;98158.44;;;6.43;100.00
54417;BME280;40326;51.220;7.250;2022-11-06T06:36:44;98158.44;;;6.43;100.00
54417;BME280;40326;51.220;7.250;2022-11-06T06:39:09;98155.41;;;6.55;100.00
54417;BME280;40326;51.220;7.250;2022-11-06T06:41:34;98154.09;;;6.45;100.00
54417;BME280;40326;51.220;7.250;2022-11-06T06:44:00;98144.47;;;6.53;100.00
54417;BME280;40326;51.220;7.250;2022-11-06T06:46:25;98146.13;;;6.54;100.00
54417;BME280;40326;51.220;7.250;2022-11-06T06:48:50;98141.72;;;6.60;100.00
54417;BME280;40326;51.220;7.250;2022-11-06T06:51:16;98150.28;;;6.57;100.00
54417;BME280;40326;51.220;7.250;2022-11-06T06:53:41;98153.75;;;6.54;100.00
54417;BME280;40326;51.220;7.250;2022-11-06T06:56:07;98158.56;;;6.62;100.00
54417;BME280;40326;51.220;7.250;2022-11-06T06:58:32;98156.72;;;6.44;100.00
54417;BME280;40326;51.220;7.250;2022-11-06T07:00:59;98159.19;;;6.45;100.00
54417;BME280;40326;51.220;7.250;2022-11-06T07:03:25;98167.63;;;6.47;100.00
54417;BME280;40326;51.220;7.250;2022-11-06T07:05:50;98175.25;;;6.47;100.00
54417;BME280;40326;51.220;7.250;2022-11-06T07:08:15;98180.81;;;6.57;100.00
54417;BME280;40326;51.220;7.250;2022-11-06T07:10:41;98184.81;;;6.63;100.00
54417;BME280;40326;51.220;7.250;2022-11-06T07:13:06;98189.16;;;6.61;100.00
54417;BME280;40326;51.220;7.250;2022-11-06T07:15:31;98191.69;;;6.61;100.00
54417;BME280;40326;51.220;7.250;2022-11-06T07:18:01;98183.78;;;6.68;100.00
54417;BME280;40326;51.220;7.250;2022-11-06T07:20:27;98179.53;;;6.69;100.00
54417;BME280;40326;51.220;7.250;2022-11-06T07:22:52;98181.06;;;6.73;100.00
54417;BME280;40326;51.220;7.250;2022-11-06T07:25:17;98181.66;;;6.79;100.00
54417;BME280;40326;51.220;7.250;2022-11-06T07:27:43;98173.41;;;6.73;100.00
54417;BME280;40326;51.220;7.250;2022-11-06T07:30:08;98177.88;;;6.90;100.00
54417;BME280;40326;51.220;7.250;2022-11-06T07:32:34;98170.28;;;6.88;100.00
54417;BME280;40326;51.220;7.250;2022-11-06T07:34:59;98171.59;;;6.98;100.00
54417;BME280;40326;51.220;7.250;2022-11-06T07:37:24;98171.00;;;7.14;100.00
54417;BME280;40326;51.220;7.250;2022-11-06T07:39:50;98171.84;;;7.14;100.00
54417;BME280;40326;51.220;7.250;2022-11-06T07:42:15;98172.78;;;7.11;100.00
54417;BME280;40326;51.220;7.250;2022-11-06T07:44:40;98183.16;;;7.27;100.00
54417;BME280;40326;51.220;7.250;2022-11-06T07:47:06;98172.81;;;7.32;100.00
54417;BME280;40326;51.220;7.250;2022-11-06T07:49:31;98172.06;;;7.30;100.00
54417;BME280;40326;51.220;7.250;2022-11-06T07:51:56;98166.47;;;7.42;100.00
54417;BME280;40326;51.220;7.250;2022-11-06T07:54:22;98168.63;;;7.51;100.00
54417;BME280;40326;51.220;7.250;2022-11-06T07:56:47;98162.00;;;7.67;100.00
54417;BME280;40326;51.220;7.250;2022-11-06T07:59:12;98152.56;;;7.69;100.00
54417;BME280;40326;51.220;7.250;2022-11-06T08:01:38;98154.34;;;7.88;100.00
54417;BME280;40326;51.220;7.250;2022-11-06T08:04:03;98154.50;;;7.85;100.00
54417;BME280;40326;51.220;7.250;2022-11-06T08:06:28;98144.41;;;8.02;100.00
54417;BME280;40326;51.220;7.250;2022-11-06T08:08:54;98143.59;;;8.20;100.00
54417;BME280;40326;51.220;7.250;2022-11-06T08:11:19;98134.78;;;8.28;100.00
54417;BME280;40326;51.220;7.250;2022-11-06T08:13:44;98132.91;;;8.31;100.00
54417;BME280;40326;51.220;7.250;2022-11-06T08:16:12;98120.06;;;8.33;100.00
54417;BME280;40326;51.220;7.250;2022-11-06T08:18:38;98123.97;;;8.41;100.00
54417;BME280;40326;51.220;7.250;2022-11-06T08:21:04;98114.41;;;8.46;100.00
54417;BME280;40326;51.220;7.250;2022-11-06T08:23:30;98122.03;;;8.65;100.00
54417;BME280;40326;51.220;7.250;2022-11-06T08:25:58;98112.97;;;8.77;100.00
54417;BME280;40326;51.220;7.250;2022-11-06T08:28:24;98116.22;;;8.62;100.00
54417;BME280;40326;51.220;7.250;2022-11-06T08:30:50;98116.38;;;8.40;100.00
54417;BME280;40326;51.220;7.250;2022-11-06T08:33:16;98118.19;;;8.38;100.00
54417;BME280;40326;51.220;7.250;2022-11-06T08:35:42;98119.59;;;8.62;100.00
54417;BME280;40326;51.220;7.250;2022-11-06T08:38:07;98110.84;;;8.68;100.00
54417;BME280;40326;51.220;7.250;2022-11-06T08:40:35;98106.63;;;8.67;100.00
54417;BME280;40326;51.220;7.250;2022-11-06T08:43:03;98100.81;;;8.82;100.00
54417;BME280;40326;51.220;7.250;2022-11-06T08:45:29;98106.28;;;8.74;100.00
54417;BME280;40326;51.220;7.250;2022-11-06T08:47:59;98095.94;;;8.95;100.00
54417;BME280;40326;51.220;7.250;2022-11-06T08:50:26;98091.00;;;9.09;100.00
54417;BME280;40326;51.220;7.250;2022-11-06T08:52:51;98083.47;;;9.06;100.00
54417;BME280;40326;51.220;7.250;2022-11-06T08:55:16;98074.34;;;9.19;100.00
54417;BME280;40326;51.220;7.250;2022-11-06T08:57:42;98073.63;;;9.33;100.00
54417;BME280;40326;51.220;7.250;2022-11-06T09:00:07;98075.69;;;9.44;100.00
54417;BME280;40326;51.220;7.250;2022-11-06T09:02:33;98070.59;;;9.59;100.00
54417;BME280;40326;51.220;7.250;2022-11-06T09:04:58;98056.22;;;9.74;100.00
54417;BME280;40326;51.220;7.250;2022-11-06T09:07:24;98054.31;;;9.62;100.00
54417;BME280;40326;51.220;7.250;2022-11-06T09:09:49;98048.13;;;9.66;100.00
54417;BME280;40326;51.220;7.250;2022-11-06T09:12:14;98046.59;;;10.11;100.00
54417;BME280;40326;51.220;7.250;2022-11-06T09:14:39;98045.31;;;10.35;100.00
54417;BME280;40326;51.220;7.250;2022-11-06T09:17:05;98043.31;;;10.56;100.00
54417;BME280;40326;51.220;7.250;2022-11-06T09:19:30;98033.09;;;10.40;100.00
54417;BME280;40326;51.220;7.250;2022-11-06T09:21:55;98042.59;;;10.22;100.00
54417;BME280;40326;51.220;7.250;2022-11-06T09:24:21;98043.41;;;10.07;100.00
54417;BME280;40326;51.220;7.250;2022-11-06T09:26:46;98034.22;;;10.19;100.00
54417;BME280;40326;51.220;7.250;2022-11-06T09:29:11;98033.09;;;10.40;100.00
54417;BME280;40326;51.220;7.250;2022-11-06T09:31:36;98022.72;;;10.73;100.00
54417;BME280;40326;51.220;7.250;2022-11-06T09:34:02;98025.94;;;11.07;100.00
54417;BME280;40326;51.220;7.250;2022-11-06T09:36:27;98017.84;;;10.69;100.00
54417;BME280;40326;51.220;7.250;2022-11-06T09:38:52;98015.97;;;10.87;100.00
54417;BME280;40326;51.220;7.250;2022-11-06T09:41:24;98010.13;;;10.85;100.00
54417;BME280;40326;51.220;7.250;2022-11-06T09:46:31;98009.00;;;10.44;100.00
54417;BME280;40326;51.220;7.250;2022-11-06T09:49:11;98013.38;;;10.42;100.00
54417;BME280;40326;51.220;7.250;2022-11-06T09:51:59;98006.47;;;10.59;100.00
54417;BME280;40326;51.220;7.250;2022-11-06T09:54:35;97999.25;;;10.81;100.00
54417;BME280;40326;51.220;7.250;2022-11-06T09:57:16;97992.53;;;11.23;100.00
54417;BME280;40326;51.220;7.250;2022-11-06T09:59:44;97985.03;;;11.05;100.00
54417;BME280;40326;51.220;7.250;2022-11-06T10:02:32;97984.75;;;11.10;100.00
54417;BME280;40326;51.220;7.250;2022-11-06T10:05:04;97980.75;;;10.46;100.00
54417;BME280;40326;51.220;7.250;2022-11-06T10:07:35;97983.47;;;10.73;100.00
54417;BME280;40326;51.220;7.250;2022-11-06T10:10:03;97977.69;;;10.39;100.00
54417;BME280;40326;51.220;7.250;2022-11-06T10:12:57;97988.34;;;10.47;100.00
54417;BME280;40326;51.220;7.250;2022-11-06T10:15:38;97969.28;;;10.67;100.00
54417;BME280;40326;51.220;7.250;2022-11-06T10:19:05;97969.66;;;11.05;100.00
54417;BME280;40326;51.220;7.250;2022-11-06T10:21:09;97972.41;;;11.31;100.00
54417;BME280;40326;51.220;7.250;2022-11-06T10:23:46;97963.25;;;11.70;100.00
54417;BME280;40326;51.220;7.250;2022-11-06T10:26:16;97954.06;;;11.65;100.00
54417;BME280;40326;51.220;7.250;2022-11-06T10:34:01;97932.97;;;11.33;100.00
54417;BME280;40326;51.220;7.250;2022-11-06T10:36:44;97929.19;;;11.53;100.00
54417;BME280;40326;51.220;7.250;2022-11-06T10:39:17;97924.25;;;11.22;100.00
54417;BME280;40326;51.220;7.250;2022-11-06T10:41:51;97920.63;;;11.26;100.00
54417;BME280;40326;51.220;7.250;2022-11-06T10:44:37;97914.66;;;11.25;100.00
54417;BME280;40326;51.220;7.250;2022-11-06T10:47:17;97917.50;;;11.35;100.00
54417;BME280;40326;51.220;7.250;2022-11-06T10:49:55;97922.16;;;11.28;100.00
54417;BME280;40326;51.220;7.250;2022-11-06T10:55:08;97920.47;;;11.56;100.00
54417;BME280;40326;51.220;7.250;2022-11-06T11:00:14;97902.31;;;11.18;100.00
54417;BME280;40326;51.220;7.250;2022-11-06T11:02:45;97907.78;;;11.12;100.00
54417;BME280;40326;51.220;7.250;2022-11-06T11:05:14;97908.50;;;10.85;100.00
54417;BME280;40326;51.220;7.250;2022-11-06T11:07:41;97906.25;;;10.50;100.00
54417;BME280;40326;51.220;7.250;2022-11-06T11:12:51;97894.72;;;10.88;100.00
54417;BME280;40326;51.220;7.250;2022-11-06T11:15:19;97891.66;;;10.67;100.00
54417;BME280;40326;51.220;7.250;2022-11-06T11:20:40;97875.75;;;10.76;100.00
54417;BME280;40326;51.220;7.250;2022-11-06T11:23:16;97875.38;;;10.54;100.00
54417;BME280;40326;51.220;7.250;2022-11-06T11:25:53;97868.47;;;10.70;100.00
54417;BME280;40326;51.220;7.250;2022-11-06T11:30:51;97856.19;;;10.61;100.00
54417;BME280;40326;51.220;7.250;2022-11-06T11:33:19;97845.41;;;10.56;100.00
54417;BME280;40326;51.220;7.250;2022-11-06T11:35:47;97837.53;;;10.59;100.00
54417;BME280;40326;51.220;7.250;2022-11-06T11:38:14;97843.59;;;10.72;100.00
54417;BME280;40326;51.220;7.250;2022-11-06T11:40:41;97829.31;;;10.82;100.00
54417;BME280;40326;51.220;7.250;2022-11-06T11:48:49;97813.03;;;10.83;100.00
54417;BME280;40326;51.220;7.250;2022-11-06T11:56:26;97798.69;;;10.80;100.00
54417;BME280;40326;51.220;7.250;2022-11-06T11:58:58;97808.47;;;10.74;100.00
54417;BME280;40326;51.220;7.250;2022-11-06T12:01:36;97809.41;;;11.14;100.00
54417;BME280;40326;51.220;7.250;2022-11-06T12:04:30;97789.16;;;10.97;100.00
54417;BME280;40326;51.220;7.250;2022-11-06T12:07:01;97785.75;;;11.11;100.00
54417;BME280;40326;51.220;7.250;2022-11-06T12:09:30;97781.59;;;11.22;100.00
54417;BME280;40326;51.220;7.250;2022-11-06T12:11:58;97771.13;;;10.98;100.00
54417;BME280;40326;51.220;7.250;2022-11-06T12:14:35;97761.25;;;11.06;100.00
54417;BME280;40326;51.220;7.250;2022-11-06T12:17:18;97761.75;;;11.26;100.00
54417;BME280;40326;51.220;7.250;2022-11-06T12:19:56;97746.50;;;11.37;100.00
54417;BME280;40326;51.220;7.250;2022-11-06T12:22:32;97745.34;;;11.28;100.00
54417;BME280;40326;51.220;7.250;2022-11-06T12:25:19;97743.03;;;11.38;100.00
54417;BME280;40326;51.220;7.250;2022-11-06T12:27:51;97738.78;;;11.24;100.00
54417;BME280;40326;51.220;7.250;2022-11-06T12:30:18;97726.97;;;11.22;100.00
54417;BME280;40326;51.220;7.250;2022-11-06T12:35:32;97702.66;;;11.15;100.00
54417;BME280;40326;51.220;7.250;2022-11-06T12:38:18;97690.81;;;11.26;100.00
54417;BME280;40326;51.220;7.250;2022-11-06T12:40:55;97684.66;;;11.29;100.00
54417;BME280;40326;51.220;7.250;2022-11-06T13:05:05;97641.91;;;10.48;100.00
54417;BME280;40326;51.220;7.250;2022-11-06T13:07:55;97652.59;;;10.69;100.00
54417;BME280;40326;51.220;7.250;2022-11-06T13:23:58;97659.31;;;11.77;100.00
54417;BME280;40326;51.220;7.250;2022-11-06T13:26:35;97651.34;;;11.69;100.00
54417;BME280;40326;51.220;7.250;2022-11-06T13:29:04;97643.34;;;11.86;100.00
54417;BME280;40326;51.220;7.250;2022-11-06T13:31:40;97655.44;;;11.84;100.00
54417;BME280;40326;51.220;7.250;2022-11-06T13:34:13;97662.78;;;11.76;100.00
54417;BME280;40326;51.220;7.250;2022-11-06T13:36:41;97660.72;;;11.55;100.00
54417;BME280;40326;51.220;7.250;2022-11-06T13:39:28;97662.25;;;11.58;100.00
54417;BME280;40326;51.220;7.250;2022-11-06T13:41:56;97630.75;;;11.30;100.00
54417;BME280;40326;51.220;7.250;2022-11-06T13:44:22;97645.56;;;11.52;100.00
54417;BME280;40326;51.220;7.250;2022-11-06T13:46:50;97645.78;;;11.75;100.00
54417;BME280;40326;51.220;7.250;2022-11-06T13:52:21;97639.00;;;11.61;100.00
54417;BME280;40326;51.220;7.250;2022-11-06T14:00:17;97632.81;;;11.38;100.00
54417;BME280;40326;51.220;7.250;2022-11-06T14:08:06;97619.22;;;11.11;100.00
54417;BME280;40326;51.220;7.250;2022-11-06T14:10:37;97635.41;;;11.11;100.00
54417;BME280;40326;51.220;7.250;2022-11-06T14:13:13;97636.72;;;11.04;100.00
54417;BME280;40326;51.220;7.250;2022-11-06T14:15:40;97631.13;;;11.12;100.00
54417;BME280;40326;51.220;7.250;2022-11-06T14:18:19;97631.31;;;11.08;100.00
54417;BME280;40326;51.220;7.250;2022-11-06T14:20:46;97628.88;;;11.20;100.00
54417;BME280;40326;51.220;7.250;2022-11-06T14:26:06;97626.72;;;10.87;100.00
54417;BME280;40326;51.220;7.250;2022-11-06T14:28:34;97624.94;;;10.74;100.00
54417;BME280;40326;51.220;7.250;2022-11-06T14:31:00;97611.88;;;10.79;100.00
54417;BME280;40326;51.220;7.250;2022-11-06T14:36:29;97599.78;;;10.54;100.00
54417;BME280;40326;51.220;7.250;2022-11-06T14:38:55;97608.84;;;10.45;100.00
54417;BME280;40326;51.220;7.250;2022-11-06T14:44:01;97606.84;;;10.36;100.00
54417;BME280;40326;51.220;7.250;2022-11-06T14:46:29;97596.28;;;10.28;100.00
54417;BME280;40326;51.220;7.250;2022-11-06T14:49:06;97605.78;;;10.26;100.00
54417;BME280;40326;51.220;7.250;2022-11-06T14:51:34;97604.88;;;10.27;100.00
54417;BME280;40326;51.220;7.250;2022-11-06T14:54:05;97599.19;;;10.36;100.00
54417;BME280;40326;51.220;7.250;2022-11-06T14:56:42;97585.84;;;10.31;100.00
54417;BME280;40326;51.220;7.250;2022-11-06T14:59:24;97597.91;;;10.29;100.00
54417;BME280;40326;51.220;7.250;2022-11-06T15:02:21;97603.13;;;10.28;100.00
54417;BME280;40326;51.220;7.250;2022-11-06T15:04:48;97601.09;;;10.33;100.00
54417;BME280;40326;51.220;7.250;2022-11-06T15:15:43;97602.84;;;10.18;100.00
54417;BME280;40326;51.220;7.250;2022-11-06T15:18:11;97598.38;;;10.07;100.00
54417;BME280;40326;51.220;7.250;2022-11-06T15:20:38;97595.88;;;10.06;100.00
54417;BME280;40326;51.220;7.250;2022-11-06T15:23:39;97603.00;;;10.15;100.00
54417;BME280;40326;51.220;7.250;2022-11-06T15:26:13;97605.03;;;10.10;100.00
54417;BME280;40326;51.220;7.250;2022-11-06T15:28:44;97609.78;;;10.02;100.00
54417;BME280;40326;51.220;7.250;2022-11-06T15:31:13;97600.13;;;10.07;100.00
54417;BME280;40326;51.220;7.250;2022-11-06T15:36:15;97616.16;;;9.94;100.00
54417;BME280;40326;51.220;7.250;2022-11-06T15:38:43;97623.31;;;9.89;100.00
54417;BME280;40326;51.220;7.250;2022-11-06T15:41:21;97619.19;;;9.87;100.00
54417;BME280;40326;51.220;7.250;2022-11-06T15:43:48;97622.81;;;9.97;100.00
54417;BME280;40326;51.220;7.250;2022-11-06T15:46:21;97619.09;;;9.88;100.00
54417;BME280;40326;51.220;7.250;2022-11-06T15:48:48;97614.34;;;9.96;100.00
54417;BME280;40326;51.220;7.250;2022-11-06T15:51:22;97623.31;;;9.89;100.00
54417;BME280;40326;51.220;7.250;2022-11-06T15:53:47;97617.28;;;9.90;100.00
54417;BME280;40326;51.220;7.250;2022-11-06T15:56:14;97618.53;;;9.69;100.00
54417;BME280;40326;51.220;7.250;2022-11-06T15:58:41;97630.94;;;9.61;100.00
54417;BME280;40326;51.220;7.250;2022-11-06T16:01:10;97629.63;;;9.39;100.00
54417;BME280;40326;51.220;7.250;2022-11-06T16:03:50;97625.34;;;9.10;100.00
54417;BME280;40326;51.220;7.250;2022-11-06T16:06:16;97623.31;;;9.01;100.00
54417;BME280;40326;51.220;7.250;2022-11-06T16:08:42;97629.44;;;8.82;100.00
54417;BME280;40326;51.220;7.250;2022-11-06T16:11:11;97646.72;;;8.77;100.00
54417;BME280;40326;51.220;7.250;2022-11-06T16:13:38;97656.50;;;8.69;100.00
54417;BME280;40326;51.220;7.250;2022-11-06T16:16:26;97636.09;;;8.53;100.00
54417;BME280;40326;51.220;7.250;2022-11-06T16:18:49;97617.19;;;8.42;100.00
54417;BME280;40326;51.220;7.250;2022-11-06T16:21:19;97635.03;;;8.42;100.00
54417;BME280;40326;51.220;7.250;2022-11-06T16:23:50;97627.72;;;8.36;100.00
54417;BME280;40326;51.220;7.250;2022-11-06T16:28:57;97622.91;;;8.30;100.00
54417;BME280;40326;51.220;7.250;2022-11-06T16:31:24;97610.13;;;8.14;100.00
54417;BME280;40326;51.220;7.250;2022-11-06T16:34:19;97628.25;;;8.09;100.00
54417;BME280;40326;51.220;7.250;2022-11-06T16:36:59;97581.34;;;7.96;100.00
54417;BME280;40326;51.220;7.250;2022-11-06T16:44:26;97502.06;;;7.85;100.00
54417;BME280;40326;51.220;7.250;2022-11-06T16:47:21;97520.81;;;7.84;100.00
54417;BME280;40326;51.220;7.250;2022-11-06T16:49:49;97513.91;;;7.86;100.00
54417;BME280;40326;51.220;7.250;2022-11-06T16:52:18;97527.56;;;7.85;100.00
54417;BME280;40326;51.220;7.250;2022-11-06T16:54:50;97505.84;;;7.78;100.00
54417;BME280;40326;51.220;7.250;2022-11-06T16:57:18;97488.91;;;7.77;100.00
54417;BME280;40326;51.220;7.250;2022-11-06T16:59:53;97492.38;;;7.91;100.00
54417;BME280;40326;51.220;7.250;2022-11-06T17:02:23;97494.59;;;7.82;100.00
54417;BME280;40326;51.220;7.250;2022-11-06T17:04:50;97469.13;;;7.82;100.00
54417;BME280;40326;51.220;7.250;2022-11-06T17:07:20;97466.81;;;7.93;100.00
54417;BME280;40326;51.220;7.250;2022-11-06T17:09:46;97478.34;;;8.00;100.00
54417;BME280;40326;51.220;7.250;2022-11-06T17:12:11;97483.84;;;7.92;100.00
54417;BME280;40326;51.220;7.250;2022-11-06T17:14:44;97502.00;;;8.02;100.00
54417;BME280;40326;51.220;7.250;2022-11-06T17:17:23;97501.00;;;7.89;100.00
54417;BME280;40326;51.220;7.250;2022-11-06T17:19:50;97498.88;;;7.97;100.00
54417;BME280;40326;51.220;7.250;2022-11-06T17:22:15;97508.91;;;8.00;100.00
54417;BME280;40326;51.220;7.250;2022-11-06T17:24:41;97518.25;;;8.00;100.00
54417;BME280;40326;51.220;7.250;2022-11-06T17:27:06;97517.53;;;7.97;100.00
54417;BME280;40326;51.220;7.250;2022-11-06T17:29:32;97508.25;;;8.12;100.00
54417;BME280;40326;51.220;7.250;2022-11-06T17:32:00;97503.47;;;8.06;100.00
54417;BME280;40326;51.220;7.250;2022-11-06T17:34:25;97502.81;;;8.03;100.00
54417;BME280;40326;51.220;7.250;2022-11-06T17:36:50;97502.25;;;8.13;100.00
54417;BME280;40326;51.220;7.250;2022-11-06T17:39:16;97501.59;;;8.10;100.00
54417;BME280;40326;51.220;7.250;2022-11-06T17:41:41;97491.88;;;8.16;100.00
54417;BME280;40326;51.220;7.250;2022-11-06T17:44:08;97497.63;;;8.04;100.00
54417;BME280;40326;51.220;7.250;2022-11-06T17:46:45;97497.97;;;8.14;100.00
54417;BME280;40326;51.220;7.250;2022-11-06T17:49:11;97490.41;;;8.12;100.00
54417;BME280;40326;51.220;7.250;2022-11-06T17:51:37;97484.56;;;8.10;100.00
54417;BME280;40326;51.220;7.250;2022-11-06T17:54:19;97488.03;;;8.09;100.00
54417;BME280;40326;51.220;7.250;2022-11-06T17:56:44;97488.75;;;7.95;100.00
54417;BME280;40326;51.220;7.250;2022-11-06T17:59:11;97481.50;;;7.72;100.00
54417;BME280;40326;51.220;7.250;2022-11-06T18:01:37;97480.53;;;7.75;100.00
54417;BME280;40326;51.220;7.250;2022-11-06T18:04:03;97481.03;;;7.65;100.00
54417;BME280;40326;51.220;7.250;2022-11-06T18:06:28;97471.31;;;7.56;100.00
54417;BME280;40326;51.220;7.250;2022-11-06T18:08:58;97464.72;;;7.52;100.00
54417;BME280;40326;51.220;7.250;2022-11-06T18:11:25;97464.09;;;7.64;100.00
54417;BME280;40326;51.220;7.250;2022-11-06T18:13:51;97450.78;;;7.75;100.00
54417;BME280;40326;51.220;7.250;2022-11-06T18:16:19;97464.44;;;7.74;100.00
54417;BME280;40326;51.220;7.250;2022-11-06T18:18:45;97458.50;;;7.89;100.00
54417;BME280;40326;51.220;7.250;2022-11-06T18:21:11;97459.31;;;7.90;100.00
54417;BME280;40326;51.220;7.250;2022-11-06T18:23:36;97454.38;;;8.03;100.00
54417;BME280;40326;51.220;7.250;2022-11-06T18:26:02;97441.56;;;7.88;100.00
54417;BME280;40326;51.220;7.250;2022-11-06T18:28:28;97433.69;;;7.93;100.00
54417;BME280;40326;51.220;7.250;2022-11-06T18:30:53;97426.13;;;7.91;100.00
54417;BME280;40326;51.220;7.250;2022-11-06T18:33:19;97431.88;;;7.95;100.00
54417;BME280;40326;51.220;7.250;2022-11-06T18:35:45;97433.69;;;7.93;100.00
54417;BME280;40326;51.220;7.250;2022-11-06T18:38:14;97444.94;;;8.05;100.00
54417;BME280;40326;51.220;7.250;2022-11-06T18:40:40;97465.09;;;8.09;100.00
54417;BME280;40326;51.220;7.250;2022-11-06T18:43:06;97471.66;;;8.13;100.00
54417;BME280;40326;51.220;7.250;2022-11-06T18:45:32;97475.16;;;8.26;100.00
54417;BME280;40326;51.220;7.250;2022-11-06T18:47:57;97480.03;;;8.15;100.00
54417;BME280;40326;51.220;7.250;2022-11-06T18:50:22;97472.13;;;8.20;100.00
54417;BME280;40326;51.220;7.250;2022-11-06T18:52:48;97471.88;;;8.24;100.00
54417;BME280;40326;51.220;7.250;2022-11-06T18:55:14;97470.81;;;8.29;100.00
54417;BME280;40326;51.220;7.250;2022-11-06T18:57:40;97485.94;;;8.32;100.00
54417;BME280;40326;51.220;7.250;2022-11-06T19:00:06;97490.00;;;8.36;100.00
54417;BME280;40326;51.220;7.250;2022-11-06T19:02:31;97483.88;;;8.22;100.00
54417;BME280;40326;51.220;7.250;2022-11-06T19:04:56;97487.03;;;8.28;100.00
54417;BME280;40326;51.220;7.250;2022-11-06T19:07:22;97470.34;;;8.38;100.00
54417;BME280;40326;51.220;7.250;2022-11-06T19:09:47;97477.56;;;8.30;100.00
54417;BME280;40326;51.220;7.250;2022-11-06T19:12:12;97481.75;;;8.31;100.00
54417;BME280;40326;51.220;7.250;2022-11-06T19:14:38;97487.38;;;8.37;100.00
54417;BME280;40326;51.220;7.250;2022-11-06T19:17:03;97480.91;;;8.30;100.00
54417;BME280;40326;51.220;7.250;2022-11-06T19:19:28;97480.25;;;8.26;100.00
54417;BME280;40326;51.220;7.250;2022-11-06T19:21:54;97479.78;;;8.20;100.00
54417;BME280;40326;51.220;7.250;2022-11-06T19:24:19;97479.19;;;8.31;100.00
54417;BME280;40326;51.220;7.250;2022-11-06T19:26:44;97484.28;;;8.31;100.00
54417;BME280;40326;51.220;7.250;2022-11-06T19:29:12;97490.00;;;8.36;100.00